Time;durP1;ratioP1;P1;durP2;ratioP2;P2;SDS_P1;SDS_P2;PMS_P1;PMS_P2;Temp;Humidity;BMP_temperature;BMP_pressure;BME280_temperature;BME280_humidity;BME280_pressure;Samples;Min_cycle;Max_cycle;Signal;HPM_P1;HPM_P2
2024/01/27 00:01:48;;;;;;;13.60;4.50;;;;;;;7.88;56.20;103468.13;5007760;28;97098;-68
2024/01/27 00:04:15;;;;;;;21.23;5.50;;;;;;;7.86;56.22;103461.91;5009482;28;97369;-68
2024/01/27 00:06:41;;;;;;;20.25;4.78;;;;;;;7.86;56.31;103469.06;5014206;28;97703;-68
2024/01/27 00:09:11;;;;;;;16.63;5.15;;;;;;;7.85;56.27;103473.53;5007305;28;97766;-68
2024/01/27 00:11:38;;;;;;;16.80;4.50;;;;;;;7.84;56.23;103477.13;5000843;28;97395;-68
2024/01/27 00:14:05;;;;;;;17.05;5.03;;;;;;;7.83;56.24;103472.66;4990512;28;97062;-68
2024/01/27 00:16:32;;;;;;;15.52;5.18;;;;;;;7.82;56.32;103476.25;5002716;28;97445;-68
2024/01/27 00:18:58;;;;;;;18.48;4.53;;;;;;;7.82;56.40;103478.94;4989213;28;97887;-68
2024/01/27 00:21:25;;;;;;;15.77;4.75;;;;;;;7.81;56.48;103489.66;4998386;28;97155;-68
2024/01/27 00:23:52;;;;;;;17.45;5.50;;;;;;;7.80;56.44;103494.13;4984547;28;97310;-68
2024/01/27 00:26:19;;;;;;;14.82;4.80;;;;;;;7.79;56.60;103492.38;5003046;28;98590;-68
2024/01/27 00:28:45;;;;;;;18.35;5.25;;;;;;;7.79;56.45;103486.13;5003039;28;100012;-68
2024/01/27 00:31:12;;;;;;;21.88;8.90;;;;;;;7.77;56.45;103475.47;5006297;28;96958;-68
2024/01/27 00:33:39;;;;;;;24.83;7.43;;;;;;;7.76;56.44;103480.84;5003318;28;97367;-68
2024/01/27 00:36:06;;;;;;;16.30;5.43;;;;;;;7.76;56.43;103483.50;5001824;28;98339;-68
2024/01/27 00:38:32;;;;;;;17.70;4.60;;;;;;;7.73;56.49;103479.09;5002517;28;97715;-68
2024/01/27 00:40:59;;;;;;;18.58;4.75;;;;;;;7.72;56.54;103480.00;5005576;28;97443;-68
2024/01/27 00:43:25;;;;;;;12.77;4.45;;;;;;;7.72;56.42;103479.13;5001491;28;97175;-68
2024/01/27 00:45:52;;;;;;;16.90;4.28;;;;;;;7.73;56.51;103488.91;5005943;28;98110;-68
2024/01/27 00:48:19;;;;;;;14.73;4.32;;;;;;;7.73;56.62;103479.09;5004621;28;97683;-68
2024/01/27 00:50:46;;;;;;;16.65;4.70;;;;;;;7.75;56.67;103477.28;5003729;28;97118;-67
2024/01/27 00:53:13;;;;;;;13.50;4.70;;;;;;;7.75;56.57;103489.78;4995013;28;98559;-68
2024/01/27 00:55:39;;;;;;;14.55;4.35;;;;;;;7.75;56.62;103492.44;5000676;28;98052;-69
2024/01/27 00:58:07;;;;;;;12.95;4.30;;;;;;;7.74;56.52;103485.31;4992962;28;98421;-69
2024/01/27 01:00:33;;;;;;;17.00;5.07;;;;;;;7.72;56.57;103482.69;4992641;28;100207;-69
2024/01/27 01:03:00;;;;;;;16.13;4.00;;;;;;;7.70;56.74;103484.50;5001244;28;97020;-69
2024/01/27 01:05:27;;;;;;;19.35;4.70;;;;;;;7.71;56.58;103482.72;4999767;28;97679;-69
2024/01/27 01:07:54;;;;;;;16.55;4.55;;;;;;;7.70;56.80;103472.91;5007509;28;98056;-69
2024/01/27 01:10:21;;;;;;;14.32;5.07;;;;;;;7.69;56.69;103487.19;5001084;28;96936;-69
2024/01/27 01:12:47;;;;;;;16.40;4.20;;;;;;;7.65;56.69;103487.25;5008964;28;97068;-69
2024/01/27 01:15:14;;;;;;;13.18;4.03;;;;;;;7.63;56.58;103489.06;4993610;28;97577;-69
2024/01/27 01:17:41;;;;;;;22.95;5.03;;;;;;;7.63;56.98;103489.06;4997621;28;97544;-69
2024/01/27 01:20:10;;;;;;;14.52;4.18;;;;;;;7.64;56.84;103501.53;4995972;28;97607;-69
2024/01/27 01:22:36;;;;;;;15.60;5.15;;;;;;;7.64;56.90;103501.53;4996720;28;97234;-69
2024/01/27 01:25:03;;;;;;;20.35;4.75;;;;;;;7.64;56.96;103498.84;5003203;28;97856;-69
2024/01/27 01:27:30;;;;;;;11.40;4.90;;;;;;;7.65;56.80;103505.97;5006419;28;97573;-69
2024/01/27 01:29:57;;;;;;;29.73;5.90;;;;;;;7.65;56.71;103503.28;5008689;27;96938;-69
2024/01/27 01:32:24;;;;;;;14.88;4.93;;;;;;;7.64;56.85;103500.66;5009935;28;97350;-69
2024/01/27 01:34:50;;;;;;;21.15;7.25;;;;;;;7.60;56.87;103499.81;5009565;28;97574;-69
2024/01/27 01:37:17;;;;;;;13.20;5.95;;;;;;;7.56;56.85;103511.47;4991972;28;97497;-69
2024/01/27 01:39:44;;;;;;;18.23;6.53;;;;;;;7.53;56.90;103495.47;4997055;28;97377;-69
2024/01/27 01:42:10;;;;;;;17.15;5.40;;;;;;;7.51;56.74;103494.63;5004314;28;97026;-69
2024/01/27 01:44:37;;;;;;;16.48;5.30;;;;;;;7.51;56.85;103496.41;5005397;28;97754;-69
2024/01/27 01:47:04;;;;;;;29.90;5.82;;;;;;;7.51;56.77;103499.97;5007578;28;98179;-69
2024/01/27 01:49:31;;;;;;;18.10;6.75;;;;;;;7.51;56.99;103504.44;5004539;28;97016;-69
2024/01/27 01:51:58;;;;;;;19.48;5.60;;;;;;;7.49;56.91;103507.13;4999117;28;97085;-69
2024/01/27 01:54:27;;;;;;;14.18;5.68;;;;;;;7.49;56.94;103504.44;4999196;28;97268;-69
2024/01/27 01:56:58;;;;;;;17.63;6.20;;;;;;;7.46;57.11;103495.59;5003816;28;97882;-69
2024/01/27 01:59:25;;;;;;;21.83;5.75;;;;;;;7.43;56.93;103503.63;4998834;28;97186;-69
2024/01/27 02:01:52;;;;;;;16.83;5.22;;;;;;;7.42;56.92;103512.56;4997459;28;97261;-69
2024/01/27 02:04:19;;;;;;;14.27;5.25;;;;;;;7.42;56.97;103509.88;5003807;28;99308;-69
2024/01/27 02:06:46;;;;;;;16.20;5.63;;;;;;;7.42;57.13;103509.88;4998490;28;97955;-69
2024/01/27 02:09:13;;;;;;;19.65;5.40;;;;;;;7.40;57.18;103512.59;5003493;28;97280;-69
2024/01/27 02:11:40;;;;;;;18.20;4.90;;;;;;;7.39;57.18;103502.78;5005157;28;97233;-69
2024/01/27 02:14:08;;;;;;;13.48;5.30;;;;;;;7.36;57.07;103494.81;5011017;28;97423;-69
2024/01/27 02:16:34;;;;;;;17.90;5.32;;;;;;;7.36;57.27;103499.28;5009898;28;98166;-69
2024/01/27 02:19:01;;;;;;;17.85;4.97;;;;;;;7.36;57.04;103494.81;5000564;28;96846;-69
2024/01/27 02:21:28;;;;;;;16.05;5.15;;;;;;;7.37;57.15;103498.38;5000123;28;97079;-69
2024/01/27 02:23:55;;;;;;;11.57;4.90;;;;;;;7.34;57.12;103502.88;4999784;28;97575;-69
2024/01/27 02:26:21;;;;;;;11.93;5.03;;;;;;;7.33;57.08;103505.56;5002384;28;100350;-69
2024/01/27 02:28:48;;;;;;;15.20;5.45;;;;;;;7.31;57.14;103510.06;5004767;28;97220;-69
2024/01/27 02:31:15;;;;;;;13.93;5.45;;;;;;;7.26;57.08;103499.44;5007803;28;97034;-69
2024/01/27 02:33:41;;;;;;;12.52;4.85;;;;;;;7.24;57.01;103497.69;4994467;28;99975;-69
2024/01/27 02:36:09;;;;;;;20.15;5.22;;;;;;;7.23;57.25;103518.19;5007385;27;97802;-69
2024/01/27 02:38:36;;;;;;;13.60;5.28;;;;;;;7.22;57.10;103513.75;5012761;28;97101;-69
2024/01/27 02:41:03;;;;;;;19.77;5.72;;;;;;;7.21;57.04;103506.63;5002398;28;97181;-69
2024/01/27 02:43:32;;;;;;;13.60;4.80;;;;;;;7.19;57.17;103507.56;5004865;28;98011;-70
2024/01/27 02:45:58;;;;;;;9.55;4.88;;;;;;;7.18;57.28;103519.16;4995051;28;100414;-68
2024/01/27 02:48:25;;;;;;;14.98;4.95;;;;;;;7.16;57.15;103515.63;5001786;28;96943;-68
2024/01/27 02:50:52;;;;;;;21.40;5.18;;;;;;;7.14;57.33;103517.44;4998871;28;97896;-68
2024/01/27 02:53:19;;;;;;;15.38;4.63;;;;;;;7.13;57.34;103508.53;5001979;28;99036;-68
2024/01/27 02:55:45;;;;;;;14.88;5.07;;;;;;;7.12;57.33;103509.44;5010500;28;97673;-68
2024/01/27 02:58:12;;;;;;;11.23;4.35;;;;;;;7.10;57.30;103521.06;5008367;28;97224;-68
2024/01/27 03:00:39;;;;;;;12.85;4.93;;;;;;;7.08;57.35;103525.53;5008015;28;98627;-68
2024/01/27 03:03:06;;;;;;;18.15;4.75;;;;;;;7.07;57.30;103523.78;5013118;28;97371;-68
2024/01/27 03:05:33;;;;;;;13.27;4.43;;;;;;;7.05;57.33;103513.09;4982681;28;100898;-68
2024/01/27 03:08:00;;;;;;;12.65;5.00;;;;;;;7.03;57.27;103514.91;4993872;28;97305;-68
2024/01/27 03:10:26;;;;;;;18.15;5.25;;;;;;;7.02;57.43;103513.16;4992792;28;97198;-68
2024/01/27 03:12:53;;;;;;;18.38;5.63;;;;;;;7.01;57.44;103517.59;5004730;28;97599;-68
2024/01/27 03:15:20;;;;;;;15.40;4.72;;;;;;;7.00;57.55;103504.28;5003189;28;97997;-68
2024/01/27 03:17:47;;;;;;;15.32;5.03;;;;;;;7.01;57.41;103511.38;5011084;28;96893;-68
2024/01/27 03:20:14;;;;;;;13.27;4.32;;;;;;;7.03;57.48;103506.00;5009032;28;96960;-68
2024/01/27 03:22:41;;;;;;;12.55;4.65;;;;;;;7.03;57.59;103506.00;4985146;28;97640;-68
2024/01/27 03:25:10;;;;;;;13.25;4.63;;;;;;;7.03;57.50;103509.56;4984525;28;97753;-68
2024/01/27 03:27:37;;;;;;;12.88;4.35;;;;;;;7.03;57.55;103514.91;4988216;28;97196;-68
2024/01/27 03:30:05;;;;;;;15.23;4.63;;;;;;;7.02;57.79;103510.47;4985777;28;97752;-68
2024/01/27 03:32:32;;;;;;;14.77;4.80;;;;;;;6.99;57.66;103506.06;4995113;28;97308;-68
2024/01/27 03:34:59;;;;;;;19.90;5.20;;;;;;;6.99;57.82;103508.72;4993398;28;98064;-68
2024/01/27 03:37:26;;;;;;;13.88;4.53;;;;;;;6.98;57.76;103506.97;4994287;28;96963;-68
2024/01/27 03:39:53;;;;;;;17.02;5.28;;;;;;;6.99;57.74;103508.72;5002541;28;98021;-68
2024/01/27 03:42:20;;;;;;;15.93;5.57;;;;;;;6.98;57.84;103508.75;5005911;28;97630;-68
2024/01/27 03:44:46;;;;;;;10.98;4.10;;;;;;;6.98;57.73;103511.41;4998588;28;100195;-68
2024/01/27 03:47:14;;;;;;;17.83;5.47;;;;;;;6.98;57.69;103519.44;5002355;28;97210;-68
2024/01/27 03:49:40;;;;;;;16.95;5.15;;;;;;;6.97;57.76;103517.66;4996128;28;97060;-68
2024/01/27 03:52:07;;;;;;;18.30;5.68;;;;;;;6.99;57.81;103519.41;4997598;28;97636;-68
2024/01/27 03:54:34;;;;;;;17.00;5.55;;;;;;;7.00;57.91;103523.84;4993231;28;98659;-68
2024/01/27 03:57:01;;;;;;;12.65;4.93;;;;;;;7.01;57.69;103524.75;4996999;28;97498;-68
2024/01/27 03:59:28;;;;;;;11.98;4.80;;;;;;;7.00;57.86;103515.84;4999722;28;96799;-68
2024/01/27 04:01:55;;;;;;;16.83;6.28;;;;;;;7.00;57.88;103522.97;4988658;28;97870;-68
2024/01/27 04:04:23;;;;;;;16.13;5.63;;;;;;;6.99;57.90;103524.75;4991191;28;97446;-68
2024/01/27 04:06:50;;;;;;;17.45;5.72;;;;;;;6.97;57.78;103523.91;4978112;28;97256;-68
2024/01/27 04:09:18;;;;;;;17.75;6.60;;;;;;;6.97;57.85;103525.69;4985148;28;96896;-68
2024/01/27 04:11:45;;;;;;;14.07;5.82;;;;;;;6.96;57.71;103527.47;5000576;28;97760;-68
2024/01/27 04:14:11;;;;;;;17.83;6.03;;;;;;;6.97;57.85;103534.59;4998181;28;98595;-68
2024/01/27 04:16:39;;;;;;;15.13;6.72;;;;;;;6.97;57.89;103533.69;5004563;28;97444;-69
2024/01/27 04:19:06;;;;;;;21.08;6.88;;;;;;;6.94;57.80;103539.97;4989404;28;97089;-68
2024/01/27 04:21:33;;;;;;;17.92;6.97;;;;;;;6.92;58.04;103531.09;5002849;28;98049;-68
2024/01/27 04:24:00;;;;;;;18.83;7.30;;;;;;;6.92;57.81;103533.75;5002103;28;97536;-68
2024/01/27 04:26:27;;;;;;;20.98;6.72;;;;;;;6.93;58.08;103538.19;5009635;28;96821;-68
2024/01/27 04:28:54;;;;;;;17.83;7.97;;;;;;;6.94;57.88;103533.75;5011360;28;96997;-68
2024/01/27 04:31:21;;;;;;;17.20;7.68;;;;;;;6.94;57.92;103539.97;5007960;28;97655;-68
2024/01/27 04:33:48;;;;;;;16.27;8.02;;;;;;;6.93;57.92;103545.31;4996728;28;97448;-68
2024/01/27 04:36:25;;;;;;;19.02;7.35;;;;;;;6.92;57.98;103536.44;5004500;28;96880;-68
2024/01/27 04:38:51;;;;;;;12.70;7.30;;;;;;;6.91;57.93;103533.78;5000192;28;97041;-67
2024/01/27 04:41:18;;;;;;;19.23;7.60;;;;;;;6.87;57.92;103532.94;5000848;28;98224;-68
2024/01/27 04:43:45;;;;;;;26.92;9.10;;;;;;;6.85;57.96;103534.75;5003559;28;97453;-68
2024/01/27 04:46:11;;;;;;;21.10;8.88;;;;;;;6.84;58.03;103532.97;5003346;28;97008;-70
2024/01/27 04:48:38;;;;;;;22.77;9.02;;;;;;;6.83;58.12;103535.66;5011766;28;97434;-68
2024/01/27 04:51:05;;;;;;;23.60;8.32;;;;;;;6.80;58.05;103536.59;5000799;28;99971;-68
2024/01/27 04:53:32;;;;;;;21.67;8.27;;;;;;;6.77;58.00;103536.63;5002268;28;98095;-68
2024/01/27 04:55:59;;;;;;;20.50;8.82;;;;;;;6.76;57.96;103539.31;4996208;28;97511;-68
2024/01/27 04:58:26;;;;;;;17.38;8.68;;;;;;;6.76;58.04;103542.00;4993042;28;97136;-68
2024/01/27 05:00:52;;;;;;;15.02;8.02;;;;;;;6.75;57.94;103541.09;5003508;28;97781;-68
2024/01/27 05:03:19;;;;;;;18.80;8.80;;;;;;;6.73;57.99;103537.56;4993786;28;97600;-68
2024/01/27 05:05:46;;;;;;;19.83;8.48;;;;;;;6.72;58.05;103535.81;5000028;28;96892;-68
2024/01/27 05:08:14;;;;;;;21.15;9.00;;;;;;;6.72;58.01;103533.13;5006000;28;97374;-68
2024/01/27 05:10:40;;;;;;;25.23;9.57;;;;;;;6.72;58.07;103537.59;5001193;28;100035;-68
2024/01/27 05:13:07;;;;;;;23.98;9.68;;;;;;;6.71;58.26;103538.50;5006496;28;97501;-68
2024/01/27 05:15:34;;;;;;;22.33;9.63;;;;;;;6.72;58.12;103534.91;4992542;28;97758;-68
2024/01/27 05:18:01;;;;;;;16.35;7.85;;;;;;;6.71;58.19;103536.69;5003521;28;97128;-68
2024/01/27 05:20:28;;;;;;;24.42;9.25;;;;;;;6.70;58.26;103526.91;4995143;28;98200;-67
2024/01/27 05:22:54;;;;;;;20.13;9.23;;;;;;;6.72;58.36;103526.91;5004584;28;97565;-68
2024/01/27 05:25:21;;;;;;;23.80;9.15;;;;;;;6.71;58.35;103527.81;5000380;28;97122;-68
2024/01/27 05:27:48;;;;;;;21.90;8.63;;;;;;;6.71;58.39;103523.34;5005987;28;97128;-68
2024/01/27 05:30:15;;;;;;;15.75;8.75;;;;;;;6.72;58.28;103522.44;5004168;28;98738;-68
2024/01/27 05:32:42;;;;;;;24.20;9.10;;;;;;;6.73;58.51;103512.66;5007532;28;97659;-68
2024/01/27 05:35:10;;;;;;;19.45;9.20;;;;;;;6.74;58.49;103506.41;4992880;28;97809;-68
2024/01/27 05:37:39;;;;;;;17.75;8.57;;;;;;;6.74;58.58;103514.41;5004884;28;97101;-68
2024/01/27 05:40:07;;;;;;;16.40;8.85;;;;;;;6.74;58.48;103503.72;4998246;28;97757;-68
2024/01/27 05:42:34;;;;;;;16.33;8.07;;;;;;;6.74;58.37;103499.28;4999592;28;97517;-69
2024/01/27 05:45:01;;;;;;;18.05;7.65;;;;;;;6.76;58.40;103513.50;5000047;28;97031;-68
2024/01/27 05:47:28;;;;;;;14.43;8.82;;;;;;;6.78;58.31;103505.47;5007498;28;96760;-68
2024/01/27 05:49:55;;;;;;;18.38;8.02;;;;;;;6.79;58.42;103509.91;4990756;28;97804;-68
2024/01/27 05:52:22;;;;;;;21.30;8.80;;;;;;;6.79;58.52;103508.13;5006168;28;97484;-68
2024/01/27 05:54:52;;;;;;;21.88;8.02;;;;;;;6.80;58.46;103507.22;5005750;28;96901;-68
2024/01/27 05:57:19;;;;;;;19.38;8.65;;;;;;;6.81;58.39;103516.09;4993359;28;98202;-68
2024/01/27 05:59:46;;;;;;;20.17;8.65;;;;;;;6.82;58.33;103516.09;5006080;28;97750;-68
2024/01/27 06:02:14;;;;;;;19.60;8.60;;;;;;;6.80;58.54;103503.66;5001038;27;97411;-68
2024/01/27 06:04:40;;;;;;;15.48;7.85;;;;;;;6.78;58.38;103514.34;5000935;28;97197;-68
2024/01/27 06:07:07;;;;;;;18.60;8.02;;;;;;;6.77;58.49;103512.59;4997829;28;98211;-69
2024/01/27 06:09:36;;;;;;;24.17;8.60;;;;;;;6.77;58.45;103511.69;5003622;27;99587;-68
2024/01/27 06:12:03;;;;;;;19.95;8.55;;;;;;;6.75;58.53;103509.06;5001425;28;99640;-68
2024/01/27 06:14:30;;;;;;;18.10;8.32;;;;;;;6.75;58.58;103511.72;4991922;28;96870;-68
2024/01/27 06:16:57;;;;;;;16.83;8.48;;;;;;;6.73;58.49;103513.53;5000257;28;97054;-68
2024/01/27 06:19:24;;;;;;;21.45;8.05;;;;;;;6.74;58.52;103503.72;5002295;28;98120;-68
2024/01/27 06:21:51;;;;;;;18.48;8.18;;;;;;;6.73;58.59;103513.53;5008715;28;99904;-68
2024/01/27 06:24:18;;;;;;;14.60;7.78;;;;;;;6.73;58.43;103518.00;4992798;28;96820;-68
2024/01/27 06:26:44;;;;;;;16.02;8.57;;;;;;;6.69;58.36;103510.00;4995201;28;97808;-68
2024/01/27 06:29:11;;;;;;;17.70;8.25;;;;;;;6.70;58.26;103513.56;5004084;28;100085;-68
2024/01/27 06:31:38;;;;;;;17.08;7.65;;;;;;;6.69;58.52;103523.38;5008215;28;97607;-68
2024/01/27 06:34:04;;;;;;;16.98;8.77;;;;;;;6.69;58.56;103523.38;4992100;28;96872;-68
2024/01/27 06:36:32;;;;;;;20.05;8.25;;;;;;;6.67;58.43;103524.25;4998023;28;97205;-68
2024/01/27 06:38:59;;;;;;;26.65;9.07;;;;;;;6.63;58.43;103525.19;5011059;28;97416;-69
2024/01/27 06:41:25;;;;;;;18.25;8.63;;;;;;;6.62;58.27;103526.09;4996608;28;97529;-68
2024/01/27 06:43:52;;;;;;;20.00;8.50;;;;;;;6.61;58.38;103527.88;4991020;28;97073;-68
2024/01/27 06:46:19;;;;;;;18.00;8.88;;;;;;;6.60;58.42;103528.78;4992782;28;98447;-68
2024/01/27 06:48:45;;;;;;;18.70;8.20;;;;;;;6.58;58.31;103521.69;5000973;28;97875;-68
2024/01/27 06:51:12;;;;;;;25.25;8.43;;;;;;;6.56;58.43;103528.84;4999305;28;97591;-68
2024/01/27 06:53:40;;;;;;;21.10;9.18;;;;;;;6.55;58.36;103535.09;5007098;28;97581;-68
2024/01/27 06:56:07;;;;;;;21.38;8.07;;;;;;;6.55;58.41;103530.63;5004164;28;97143;-68
2024/01/27 06:58:34;;;;;;;20.52;9.00;;;;;;;6.53;58.35;103523.53;5007856;28;98617;-68
2024/01/27 07:01:01;;;;;;;23.83;9.40;;;;;;;6.52;58.57;103525.31;5014319;28;97883;-68
2024/01/27 07:03:28;;;;;;;22.92;9.65;;;;;;;6.50;58.43;103532.47;5011580;27;97523;-68
2024/01/27 07:05:54;;;;;;;19.73;9.23;;;;;;;6.47;58.46;103547.63;5001133;28;97197;-68
2024/01/27 07:08:21;;;;;;;23.10;8.73;;;;;;;6.45;58.53;103552.97;5004657;28;97663;-68
2024/01/27 07:10:48;;;;;;;15.60;9.75;;;;;;;6.46;58.41;103551.19;4988943;28;97674;-68
2024/01/27 07:13:15;;;;;;;23.08;9.30;;;;;;;6.44;58.46;103551.22;5004920;28;96989;-68
2024/01/27 07:15:41;;;;;;;17.98;9.55;;;;;;;6.44;58.58;103561.00;5005005;28;97027;-69
2024/01/27 07:18:10;;;;;;;21.00;8.48;;;;;;;6.43;58.47;103568.13;5002020;28;98084;-68
2024/01/27 07:20:38;;;;;;;22.25;10.00;;;;;;;6.43;58.63;103572.59;4992773;28;97748;-70
2024/01/27 07:23:05;;;;;;;17.95;9.05;;;;;;;6.42;58.45;103577.03;5000750;28;97457;-68
2024/01/27 07:25:31;;;;;;;20.58;9.75;;;;;;;6.40;58.57;103568.16;5005673;28;97164;-68
2024/01/27 07:27:58;;;;;;;27.17;10.50;;;;;;;6.37;58.58;103571.75;4996805;28;97876;-68
2024/01/27 07:30:25;;;;;;;21.83;9.63;;;;;;;6.38;58.58;103576.19;5001440;27;97421;-68
2024/01/27 07:32:52;;;;;;;19.30;10.10;;;;;;;6.36;58.43;103577.09;4995927;28;97406;-68
2024/01/27 07:35:19;;;;;;;26.30;10.43;;;;;;;6.34;58.30;103571.78;4999430;28;98392;-69
2024/01/27 07:37:45;;;;;;;20.13;10.25;;;;;;;6.32;58.57;103578.91;5005848;28;97939;-67
2024/01/27 07:40:12;;;;;;;22.05;10.20;;;;;;;6.30;58.57;103580.72;5005693;27;98620;-68
2024/01/27 07:42:41;;;;;;;22.55;10.43;;;;;;;6.29;58.54;103572.72;4998965;28;97526;-67
2024/01/27 07:45:08;;;;;;;22.48;11.02;;;;;;;6.28;58.48;103574.50;5023800;27;96934;-68
2024/01/27 07:47:35;;;;;;;18.63;9.95;;;;;;;6.30;58.60;103577.16;4996106;28;98486;-68
2024/01/27 07:50:02;;;;;;;20.70;11.55;;;;;;;6.31;58.70;103577.16;4990967;28;97824;-68
2024/01/27 07:52:29;;;;;;;19.58;10.07;;;;;;;6.31;58.79;103576.25;5000575;28;97088;-68
2024/01/27 07:54:55;;;;;;;25.52;11.35;;;;;;;6.30;58.71;103583.38;5006488;28;97344;-68
2024/01/27 07:57:22;;;;;;;21.17;10.30;;;;;;;6.30;58.69;103583.38;5002525;28;97697;-68
2024/01/27 07:59:49;;;;;;;23.02;10.88;;;;;;;6.31;58.82;103585.16;4996599;28;97982;-68
2024/01/27 08:02:15;;;;;;;18.65;10.68;;;;;;;6.31;58.65;103595.84;5006035;28;97152;-68
2024/01/27 08:04:42;;;;;;;23.85;10.82;;;;;;;6.30;58.83;103594.06;5012006;28;97791;-68
2024/01/27 08:07:09;;;;;;;25.00;12.85;;;;;;;6.32;58.66;103602.06;5007492;28;97563;-68
2024/01/27 08:09:37;;;;;;;18.20;11.43;;;;;;;6.32;58.89;103602.94;4996814;28;97677;-68
2024/01/27 08:12:05;;;;;;;22.02;11.10;;;;;;;6.34;58.83;103601.16;4999187;28;97127;-68
2024/01/27 08:14:33;;;;;;;26.23;12.48;;;;;;;6.36;58.84;103601.13;4994427;27;96935;-69
2024/01/27 08:17:00;;;;;;;22.75;11.00;;;;;;;6.39;58.88;103601.09;5000906;28;98183;-68
2024/01/27 08:19:27;;;;;;;24.98;11.68;;;;;;;6.41;58.97;103593.97;5000837;28;97678;-68
2024/01/27 08:21:53;;;;;;;22.30;11.57;;;;;;;6.43;58.91;103597.50;4996252;28;98189;-68
2024/01/27 08:24:22;;;;;;;20.88;12.10;;;;;;;6.43;58.93;103596.63;5002877;28;96920;-68
2024/01/27 08:26:48;;;;;;;23.50;11.65;;;;;;;6.42;58.68;103600.19;4990782;28;99164;-69
2024/01/27 08:29:15;;;;;;;20.30;11.95;;;;;;;6.41;58.93;103598.41;5000007;27;97579;-68
2024/01/27 08:31:43;;;;;;;29.10;12.52;;;;;;;6.42;58.85;103603.75;5001177;28;97170;-68
2024/01/27 08:34:12;;;;;;;26.27;11.43;;;;;;;6.43;59.01;103594.81;5006885;28;97178;-68
2024/01/27 08:36:39;;;;;;;19.95;11.23;;;;;;;6.44;58.94;103601.06;5001991;28;99739;-68
2024/01/27 08:39:08;;;;;;;22.30;11.52;;;;;;;6.47;59.08;103601.91;5016272;28;97436;-68
2024/01/27 08:41:36;;;;;;;18.83;11.63;;;;;;;6.50;58.95;103592.97;4992123;28;97204;-68
2024/01/27 08:44:03;;;;;;;24.63;11.73;;;;;;;6.49;58.96;103599.22;5013872;28;97333;-69
2024/01/27 08:46:30;;;;;;;20.45;13.52;;;;;;;6.44;58.92;103596.59;5002185;28;97540;-68
2024/01/27 08:48:57;;;;;;;21.27;11.55;;;;;;;6.44;59.08;103601.06;5014836;27;97951;-68
2024/01/27 08:51:24;;;;;;;26.92;11.63;;;;;;;6.41;59.08;103599.28;4989958;28;97392;-68
2024/01/27 08:53:50;;;;;;;21.85;12.63;;;;;;;6.42;59.21;103609.06;4992272;28;97314;-70
2024/01/27 08:56:17;;;;;;;25.15;11.95;;;;;;;6.45;59.09;103598.38;4997787;28;98668;-68
2024/01/27 08:58:44;;;;;;;24.90;12.65;;;;;;;6.49;59.13;103589.44;4999707;28;98490;-68
2024/01/27 09:01:14;;;;;;;23.33;12.48;;;;;;;6.53;59.21;103598.28;4996433;28;97131;-68
2024/01/27 09:03:41;;;;;;;28.35;12.60;;;;;;;6.56;59.12;103598.25;4995942;28;96894;-68
2024/01/27 09:06:09;;;;;;;24.63;12.23;;;;;;;6.60;59.11;103600.00;5002936;28;98087;-68
2024/01/27 09:08:36;;;;;;;19.92;11.60;;;;;;;6.65;59.18;103607.06;5003349;28;97597;-68
2024/01/27 09:11:03;;;;;;;25.88;12.00;;;;;;;6.71;59.22;103616.81;5010160;28;97111;-68
2024/01/27 09:13:30;;;;;;;25.83;12.45;;;;;;;6.74;59.44;103614.13;5008488;28;96953;-68
2024/01/27 09:15:58;;;;;;;21.95;12.10;;;;;;;6.79;59.28;103622.06;4996475;28;98045;-68
2024/01/27 09:18:25;;;;;;;23.58;11.73;;;;;;;6.86;59.29;103624.66;4995924;28;97502;-68
2024/01/27 09:20:53;;;;;;;23.70;12.30;;;;;;;6.91;59.24;103614.81;4992017;28;97266;-68
2024/01/27 09:23:20;;;;;;;26.50;12.70;;;;;;;6.96;59.22;103610.28;4990423;28;98092;-68
2024/01/27 09:25:47;;;;;;;19.33;12.25;;;;;;;7.03;59.22;103612.91;4993331;28;98178;-70
2024/01/27 09:28:15;;;;;;;24.52;13.88;;;;;;;7.06;59.32;103619.09;4999622;28;97619;-68
2024/01/27 09:30:43;;;;;;;24.00;11.50;;;;;;;7.10;59.18;103628.81;4984613;28;97260;-68
2024/01/27 09:33:10;;;;;;;26.58;12.60;;;;;;;7.14;59.12;103632.34;4986703;28;97098;-68
2024/01/27 09:35:38;;;;;;;19.77;11.75;;;;;;;7.16;59.23;103635.88;5002675;28;100543;-68
2024/01/27 09:38:06;;;;;;;22.58;11.52;;;;;;;7.17;59.12;103643.00;5001058;28;98128;-68
2024/01/27 09:40:32;;;;;;;19.55;12.00;;;;;;;7.19;59.31;103641.19;5004010;28;97439;-68
2024/01/27 09:43:00;;;;;;;20.27;11.13;;;;;;;7.23;59.27;103648.28;4991656;28;97269;-69
2024/01/27 09:45:27;;;;;;;22.80;12.02;;;;;;;7.25;59.15;103649.13;4987750;28;98181;-69
2024/01/27 09:47:58;;;;;;;20.77;12.40;;;;;;;7.28;59.22;103654.44;5002901;28;97687;-68
2024/01/27 09:50:25;;;;;;;23.23;12.00;;;;;;;7.28;59.33;103658.00;5008309;28;96841;-68
2024/01/27 09:52:53;;;;;;;25.58;12.35;;;;;;;7.30;59.22;103664.22;5001801;28;97274;-69
2024/01/27 09:55:19;;;;;;;18.73;11.82;;;;;;;7.33;59.25;103679.34;5000202;28;98963;-69
2024/01/27 09:57:47;;;;;;;21.52;13.18;;;;;;;7.36;59.26;103670.38;4997832;28;98191;-68
2024/01/27 10:00:16;;;;;;;26.95;13.13;;;;;;;7.39;59.26;103670.34;5002425;28;98301;-68
2024/01/27 10:02:48;;;;;;;23.27;13.13;;;;;;;7.42;59.16;103678.31;4987558;28;97796;-68
2024/01/27 10:05:15;;;;;;;28.00;11.77;;;;;;;7.44;59.29;103672.09;5004585;28;97694;-68
2024/01/27 10:07:42;;;;;;;19.52;11.82;;;;;;;7.47;59.33;103679.19;5010056;28;97823;-68
2024/01/27 10:10:10;;;;;;;27.75;12.23;;;;;;;7.50;59.28;103673.81;5010753;28;97128;-69
2024/01/27 10:12:44;;;;;;;25.08;11.73;;;;;;;7.52;59.32;103672.88;5002078;28;97281;-68
2024/01/27 10:15:21;;;;;;;26.52;12.32;;;;;;;7.55;59.26;103675.50;4992092;28;97684;-68
2024/01/27 10:17:49;;;;;;;24.70;11.95;;;;;;;7.58;59.17;103674.59;5003657;28;97508;-68
2024/01/27 10:20:18;;;;;;;24.38;12.60;;;;;;;7.60;59.37;103672.78;4996422;28;97367;-69
2024/01/27 10:22:45;;;;;;;24.17;12.23;;;;;;;7.62;59.30;103666.50;4987551;28;97325;-68
2024/01/27 10:25:13;;;;;;;24.63;12.13;;;;;;;7.64;59.35;103672.72;5023668;27;98377;-69
2024/01/27 10:27:40;;;;;;;21.70;11.95;;;;;;;7.69;59.33;103680.66;4988453;28;98148;-69
2024/01/27 10:30:16;;;;;;;21.83;12.82;;;;;;;7.72;59.31;103685.09;4989806;28;97532;-69
2024/01/27 10:32:54;;;;;;;20.85;11.50;;;;;;;7.76;59.13;103678.78;4998005;28;97014;-68
2024/01/27 10:35:21;;;;;;;22.50;12.15;;;;;;;7.80;59.08;103683.19;5011337;28;97038;-69
2024/01/27 10:37:51;;;;;;;22.42;11.25;;;;;;;7.82;59.25;103684.06;5044741;27;99056;-68
2024/01/27 10:40:20;;;;;;;23.27;13.02;;;;;;;7.86;59.29;103688.44;5004176;28;97741;-68
2024/01/27 10:42:58;;;;;;;24.77;12.05;;;;;;;7.88;59.19;103687.53;5001394;28;97011;-69
2024/01/27 10:45:26;;;;;;;17.02;12.05;;;;;;;7.90;59.25;103696.41;5000275;28;98205;-68
2024/01/27 10:47:56;;;;;;;23.75;12.40;;;;;;;7.94;59.24;103700.81;4986823;28;97877;-69
2024/01/27 10:50:23;;;;;;;24.35;11.77;;;;;;;7.98;59.30;103689.16;5002607;28;97291;-68
2024/01/27 10:52:51;;;;;;;23.67;12.13;;;;;;;8.01;59.23;103690.91;4995797;28;97283;-68
2024/01/27 10:55:19;;;;;;;24.63;12.48;;;;;;;8.05;59.23;103689.94;5001924;28;97663;-70
2024/01/27 10:57:47;;;;;;;18.30;11.48;;;;;;;8.08;59.03;103676.50;4992557;28;98221;-69
2024/01/27 11:00:15;;;;;;;26.50;11.68;;;;;;;8.11;59.17;103657.72;5004048;28;97315;-68
2024/01/27 11:02:44;;;;;;;20.08;11.30;;;;;;;8.17;59.11;103657.63;4995121;27;97171;-68
2024/01/27 11:05:13;;;;;;;20.58;11.88;;;;;;;8.22;59.27;103649.56;4992779;28;97615;-68
2024/01/27 11:07:41;;;;;;;19.60;11.52;;;;;;;8.28;59.33;103649.47;5015670;28;99509;-68
2024/01/27 11:10:10;;;;;;;20.38;12.02;;;;;;;8.33;59.19;103644.03;5005401;28;96903;-68
2024/01/27 11:12:38;;;;;;;23.85;11.63;;;;;;;8.38;59.20;103651.09;4999431;28;97345;-68
2024/01/27 11:15:06;;;;;;;25.48;12.75;;;;;;;8.45;59.32;103650.09;4998811;27;97528;-68
2024/01/27 11:17:41;;;;;;;17.45;11.63;;;;;;;8.51;59.25;103655.34;4997070;28;97819;-69
2024/01/27 11:20:15;;;;;;;25.27;13.20;;;;;;;8.56;59.27;103658.81;4996704;28;97037;-69
2024/01/27 11:22:43;;;;;;;22.27;13.57;;;;;;;8.63;59.32;103647.97;5001159;28;97937;-68